« Back
NWS Peachtree City, Ga » Text Product » AHN Terminal Aerodrome Forecast


Printer-friendly Version
Current Version              Previous Versions:   1  2  3  4  5  6  7  8  9  

Terminal Aerodrome Forecast

832
FTUS42 KFFC 012100 AAB
TAFAHN
TAF AMD
KAHN 012116Z 0121/0218 VRB05KT P6SM BKN050 BKN150
      TEMPO 0121/0124 VRB10G20KT 5SM TSRA BKN045CB
     FM020100 00000KT P6SM FEW060 SCT150 SCT250
     FM021400 29005KT P6SM SCT035 SCT150=

USA.gov is the U.S. government's official web portal to all federal, state and local government web resources and services.